createdAt,value
2022-10-24T00:01:23.729Z,71.62
2022-10-24T00:03:50.864Z,70.39
2022-10-24T00:06:18.552Z,68.67
2022-10-24T00:08:45.596Z,68.27
2022-10-24T00:11:16.098Z,68.58
2022-10-24T00:13:43.528Z,67.90
2022-10-24T00:16:11.210Z,69.28
2022-10-24T00:18:38.554Z,70.07
2022-10-24T00:21:06.438Z,69.49
2022-10-24T00:23:33.462Z,67.35
2022-10-24T00:26:02.043Z,67.70
2022-10-24T00:28:30.568Z,67.54
2022-10-24T00:30:57.665Z,70.01
2022-10-24T00:33:25.599Z,71.20
2022-10-24T00:35:53.101Z,71.30
2022-10-24T00:38:20.175Z,72.31
2022-10-24T00:40:47.407Z,71.85
2022-10-24T00:43:16.899Z,70.89
2022-10-24T00:45:55.732Z,71.51
2022-10-24T00:48:33.573Z,70.87
2022-10-24T00:51:21.551Z,70.34
2022-10-24T00:53:51.783Z,69.75
2022-10-24T00:56:23.995Z,70.47
2022-10-24T00:58:53.994Z,71.51
2022-10-24T01:01:21.069Z,71.48
2022-10-24T01:03:48.024Z,72.99
2022-10-24T01:06:23.943Z,71.67
2022-10-24T01:09:23.461Z,73.26
2022-10-24T01:11:50.280Z,72.76
2022-10-24T01:14:46.205Z,71.93
2022-10-24T01:17:28.713Z,71.48
2022-10-24T01:20:35.259Z,72.93
2022-10-24T01:23:20.653Z,73.05
2022-10-24T01:26:29.570Z,73.13
2022-10-24T01:29:17.512Z,73.16
2022-10-24T01:32:34.681Z,73.28
2022-10-24T01:35:13.495Z,72.72
2022-10-24T01:37:54.912Z,74.04
2022-10-24T01:40:31.714Z,73.86
2022-10-24T01:43:03.294Z,73.34
2022-10-24T01:45:36.814Z,72.79
2022-10-24T01:48:08.008Z,72.80
2022-10-24T01:50:37.942Z,72.12
2022-10-24T01:53:06.603Z,72.63
2022-10-24T01:55:33.887Z,72.05
2022-10-24T01:58:00.735Z,70.69
2022-10-24T02:00:27.775Z,70.53
2022-10-24T02:03:19.321Z,71.37
2022-10-24T02:05:51.703Z,71.76
2022-10-24T02:08:25.522Z,71.74
2022-10-24T02:10:57.502Z,72.48
2022-10-24T02:13:57.230Z,71.33
2022-10-24T02:16:24.171Z,70.79
2022-10-24T02:18:53.837Z,69.86
2022-10-24T02:21:57.983Z,70.39
2022-10-24T02:24:50.023Z,70.00
2022-10-24T02:27:29.342Z,65.74
2022-10-24T02:30:07.762Z,67.69
2022-10-24T02:32:40.755Z,67.50
2022-10-24T02:35:10.081Z,68.47
2022-10-24T02:37:42.928Z,70.90
2022-10-24T02:40:12.978Z,70.64
2022-10-24T02:42:42.848Z,68.80
2022-10-24T02:45:11.984Z,69.12
2022-10-24T02:47:40.997Z,68.63
2022-10-24T02:50:08.757Z,69.02
2022-10-24T02:52:38.443Z,70.92
2022-10-24T02:55:06.356Z,73.96
2022-10-24T02:57:33.545Z,75.02
2022-10-24T03:00:00.418Z,76.06
2022-10-24T03:02:27.289Z,76.80
2022-10-24T03:04:54.196Z,77.99
2022-10-24T03:07:21.152Z,79.99
2022-10-24T03:09:48.109Z,79.14
2022-10-24T03:12:17.080Z,80.25
2022-10-24T03:14:44.760Z,80.25
2022-10-24T03:17:11.708Z,80.85
2022-10-24T03:19:38.750Z,82.26
2022-10-24T03:22:05.702Z,82.57
2022-10-24T03:24:43.967Z,83.06
2022-10-24T03:27:11.277Z,83.25
2022-10-24T03:29:38.115Z,83.35
2022-10-24T03:32:05.779Z,82.91
2022-10-24T03:34:33.046Z,81.32
2022-10-24T03:36:59.967Z,80.85
2022-10-24T03:39:26.880Z,80.92
2022-10-24T03:41:53.729Z,79.58
2022-10-24T03:44:20.615Z,79.39
2022-10-24T03:46:47.522Z,79.68
2022-10-24T03:49:14.416Z,79.25
2022-10-24T03:51:41.302Z,76.79
2022-10-24T03:54:08.156Z,76.32
2022-10-24T03:56:35.022Z,78.26
2022-10-24T03:59:01.985Z,77.90
2022-10-24T04:01:29.122Z,76.46
2022-10-24T04:03:56.009Z,78.14
2022-10-24T04:06:22.901Z,79.78
2022-10-24T04:08:49.833Z,78.82
2022-10-24T04:11:16.673Z,77.95
2022-10-24T04:13:43.925Z,77.47
2022-10-24T04:16:10.866Z,77.14
2022-10-24T04:18:37.760Z,75.87
2022-10-24T04:21:05.050Z,74.82
2022-10-24T04:23:35.814Z,73.90
2022-10-24T04:26:02.808Z,72.50
2022-10-24T04:28:30.260Z,74.23
2022-10-24T04:30:57.740Z,78.49
2022-10-24T04:33:25.035Z,79.36
2022-10-24T04:35:52.828Z,79.25
2022-10-24T04:38:19.985Z,79.32
2022-10-24T04:40:49.425Z,81.54
2022-10-24T04:43:16.748Z,83.15
2022-10-24T04:45:43.644Z,83.31
2022-10-24T04:48:10.522Z,80.80
2022-10-24T04:50:39.281Z,80.79
2022-10-24T04:53:06.174Z,76.79
2022-10-24T04:55:33.174Z,75.34
2022-10-24T04:58:00.103Z,74.74
2022-10-24T05:00:27.383Z,71.49
2022-10-24T05:02:56.767Z,66.26
2022-10-24T05:05:26.035Z,63.12
2022-10-24T05:07:53.011Z,62.65
2022-10-24T05:10:20.391Z,59.13
2022-10-24T05:12:47.566Z,55.48
2022-10-24T05:15:15.161Z,52.19
2022-10-24T05:17:42.231Z,50.86
2022-10-24T05:20:09.675Z,47.72
2022-10-24T05:22:36.942Z,43.88
2022-10-24T05:25:04.550Z,42.13
2022-10-24T05:27:31.581Z,40.64
2022-10-24T05:29:58.609Z,40.19
2022-10-24T05:32:26.185Z,40.85
2022-10-24T05:34:53.115Z,40.30
2022-10-24T05:37:20.015Z,39.00
2022-10-24T05:39:46.995Z,36.68
2022-10-24T05:42:14.633Z,34.73
2022-10-24T05:44:41.612Z,33.56
2022-10-24T05:47:08.488Z,30.26
2022-10-24T05:49:35.697Z,29.99
2022-10-24T05:52:02.621Z,28.39
2022-10-24T05:54:37.621Z,28.87
2022-10-24T05:57:15.730Z,27.62
2022-10-24T05:59:42.604Z,28.88
2022-10-24T06:02:18.246Z,32.80
2022-10-24T06:04:45.643Z,34.90
2022-10-24T06:07:12.686Z,34.91
2022-10-24T06:09:41.837Z,34.72
2022-10-24T06:12:10.221Z,31.51
2022-10-24T06:14:38.472Z,30.98
2022-10-24T06:17:06.367Z,30.13
2022-10-24T06:19:33.322Z,28.42
2022-10-24T06:22:00.158Z,28.15
2022-10-24T06:24:27.009Z,25.35
2022-10-24T06:26:54.020Z,25.91
2022-10-24T06:29:20.954Z,27.42
2022-10-24T06:31:48.060Z,26.15
2022-10-24T06:34:15.158Z,24.88
2022-10-24T06:36:41.985Z,24.58
2022-10-24T06:39:08.883Z,23.73
2022-10-24T06:41:35.792Z,22.79
2022-10-24T06:44:04.321Z,23.10
2022-10-24T06:46:32.654Z,24.83
2022-10-24T06:48:59.712Z,25.61
2022-10-24T06:51:26.594Z,26.08
2022-10-24T06:53:53.442Z,25.10
2022-10-24T06:56:20.470Z,24.79
2022-10-24T06:58:47.362Z,26.03
2022-10-24T07:01:17.675Z,28.03
2022-10-24T07:03:45.143Z,28.60
2022-10-24T07:06:18.704Z,29.80
2022-10-24T07:08:46.335Z,27.48
2022-10-24T07:11:13.520Z,26.30
2022-10-24T07:13:40.632Z,26.41
2022-10-24T07:16:08.066Z,24.88
2022-10-24T07:18:34.970Z,25.33
2022-10-24T07:21:04.014Z,25.28
2022-10-24T07:23:31.423Z,25.74
2022-10-24T07:26:03.668Z,25.80
2022-10-24T07:28:30.565Z,26.83
2022-10-24T07:30:57.488Z,25.19
2022-10-24T07:33:24.812Z,24.69
2022-10-24T07:35:51.789Z,23.81
2022-10-24T07:38:18.932Z,26.01
2022-10-24T07:40:46.453Z,25.75
2022-10-24T07:43:13.458Z,24.69
2022-10-24T07:45:40.613Z,24.11
2022-10-24T07:48:07.537Z,23.46
2022-10-24T07:50:35.698Z,24.08
2022-10-24T07:53:02.548Z,24.31
2022-10-24T07:55:29.445Z,23.52
2022-10-24T07:57:57.785Z,23.27
2022-10-24T08:00:25.204Z,23.02
2022-10-24T08:02:52.102Z,23.38
2022-10-24T08:05:22.154Z,22.15
2022-10-24T08:07:56.291Z,22.02
2022-10-24T08:10:33.046Z,21.53
2022-10-24T08:13:00.042Z,21.95
2022-10-24T08:15:27.973Z,22.41
2022-10-24T08:17:55.407Z,22.10
2022-10-24T08:20:24.244Z,21.90
2022-10-24T08:22:51.139Z,22.40
2022-10-24T08:25:18.124Z,21.55
2022-10-24T08:27:45.057Z,20.89
2022-10-24T08:30:12.613Z,22.94
2022-10-24T08:32:40.349Z,24.31
2022-10-24T08:35:07.962Z,24.97
2022-10-24T08:40:16.737Z,26.53
2022-10-24T08:42:44.556Z,26.17
2022-10-24T08:45:27.867Z,26.66
2022-10-24T08:48:14.040Z,26.36
2022-10-24T08:50:47.541Z,26.43
2022-10-24T08:53:22.952Z,26.78
2022-10-24T08:55:55.734Z,26.01
2022-10-24T08:58:34.415Z,23.95
2022-10-24T09:01:05.108Z,22.35
2022-10-24T09:03:54.998Z,21.85
2022-10-24T09:06:25.972Z,23.46
2022-10-24T09:08:55.680Z,22.91
2022-10-24T09:11:47.331Z,22.15
2022-10-24T09:14:22.992Z,22.93
2022-10-24T09:16:54.819Z,21.95
2022-10-24T09:19:24.703Z,23.91
2022-10-24T09:21:54.333Z,24.41
2022-10-24T09:24:59.864Z,25.30
2022-10-24T09:27:38.454Z,25.31
2022-10-24T09:30:08.102Z,25.68
2022-10-24T09:32:36.890Z,23.58
2022-10-24T09:35:08.993Z,25.85
2022-10-24T09:37:43.890Z,26.68
2022-10-24T09:40:24.238Z,27.20
2022-10-24T09:43:00.801Z,25.74
2022-10-24T09:45:37.421Z,25.78
2022-10-24T09:48:26.060Z,24.73
2022-10-24T09:50:57.309Z,24.47
2022-10-24T09:53:36.174Z,24.23
2022-10-24T09:56:15.977Z,23.93
2022-10-24T09:58:43.234Z,23.28
2022-10-24T10:01:22.936Z,23.16
2022-10-24T10:04:10.085Z,24.78
2022-10-24T10:06:47.294Z,25.76
2022-10-24T10:09:26.007Z,29.10
2022-10-24T10:12:02.469Z,29.76
2022-10-24T10:14:30.370Z,29.75
2022-10-24T10:17:07.605Z,28.59
2022-10-24T10:19:38.804Z,28.31
2022-10-24T10:22:20.825Z,28.43
2022-10-24T10:24:48.233Z,28.48
2022-10-24T10:27:32.188Z,30.06
2022-10-24T10:30:17.184Z,31.00
2022-10-24T10:32:53.873Z,30.93
2022-10-24T10:35:28.257Z,31.62
2022-10-24T10:37:58.024Z,33.32
2022-10-24T10:40:24.863Z,31.66
2022-10-24T10:43:03.776Z,29.33
2022-10-24T10:45:51.004Z,27.85
2022-10-24T10:48:56.201Z,28.36
2022-10-24T10:52:04.486Z,31.42
2022-10-24T10:54:49.548Z,30.53
2022-10-24T10:57:35.342Z,31.44
2022-10-24T11:00:12.430Z,31.16
2022-10-24T11:03:21.122Z,32.71
2022-10-24T11:06:10.538Z,32.40
2022-10-24T11:09:08.228Z,32.80
2022-10-24T11:11:41.299Z,34.03
2022-10-24T11:14:31.988Z,33.84
2022-10-24T11:17:26.580Z,33.61
2022-10-24T11:20:31.425Z,33.42
2022-10-24T11:23:10.010Z,33.51
2022-10-24T11:25:43.156Z,33.54
2022-10-24T11:28:12.838Z,34.27
2022-10-24T11:30:47.429Z,34.00
2022-10-24T11:33:19.215Z,35.73
2022-10-24T11:36:17.127Z,35.79
2022-10-24T11:38:54.085Z,35.66
2022-10-24T11:41:40.089Z,34.93
2022-10-24T11:44:23.340Z,32.25
2022-10-24T11:47:05.522Z,34.90
2022-10-24T11:49:46.090Z,35.48
2022-10-24T11:52:21.960Z,36.03
2022-10-24T11:55:21.735Z,36.58
2022-10-24T11:57:58.680Z,37.69
2022-10-24T12:00:32.172Z,37.02
2022-10-24T12:03:47.147Z,37.62
2022-10-24T12:06:40.531Z,38.91
2022-10-24T12:09:24.188Z,40.38
2022-10-24T12:12:23.176Z,40.50
2022-10-24T12:15:27.442Z,41.91
2022-10-24T12:17:54.274Z,40.83
2022-10-24T12:20:23.360Z,40.23
2022-10-24T12:22:51.664Z,39.08
2022-10-24T12:25:30.214Z,37.58
2022-10-24T12:28:03.443Z,39.30
2022-10-24T12:30:36.508Z,37.62
2022-10-24T12:33:03.487Z,37.33
2022-10-24T12:35:37.594Z,35.77
2022-10-24T12:38:35.781Z,34.73
2022-10-24T12:41:24.012Z,34.08
2022-10-24T12:43:50.981Z,32.68
2022-10-24T12:46:23.140Z,33.88
2022-10-24T12:48:59.378Z,33.42
2022-10-24T12:51:39.233Z,33.06
2022-10-24T12:54:12.136Z,33.63
2022-10-24T12:56:54.109Z,34.32
2022-10-24T12:59:44.958Z,32.85
2022-10-24T13:02:12.701Z,33.94
2022-10-24T13:04:48.704Z,34.68
2022-10-24T13:07:30.560Z,35.64
2022-10-24T13:10:18.909Z,36.20
2022-10-24T13:13:00.860Z,33.98
2022-10-24T13:15:57.502Z,35.11
2022-10-24T13:18:42.725Z,37.32
2022-10-24T13:21:31.433Z,36.60
2022-10-24T13:24:16.729Z,36.99
2022-10-24T13:26:55.857Z,36.67
2022-10-24T13:29:28.984Z,35.89
2022-10-24T13:32:18.686Z,38.76
2022-10-24T13:34:50.659Z,39.80
2022-10-24T13:37:25.756Z,38.78
2022-10-24T13:40:27.993Z,39.53
2022-10-24T13:43:02.165Z,39.85
2022-10-24T13:46:00.518Z,40.49
2022-10-24T13:48:35.066Z,39.96
2022-10-24T13:51:17.412Z,40.65
2022-10-24T13:53:50.268Z,42.11
2022-10-24T13:56:18.145Z,41.77
2022-10-24T13:58:45.755Z,43.13
2022-10-24T14:01:24.086Z,42.86
2022-10-24T14:03:52.539Z,43.56
2022-10-24T14:06:31.102Z,44.63
2022-10-24T14:09:06.869Z,43.44
2022-10-24T14:11:39.360Z,42.92
2022-10-24T14:14:22.242Z,44.12
2022-10-24T14:17:05.871Z,44.49
2022-10-24T14:19:36.176Z,47.03
2022-10-24T14:22:18.874Z,47.48
2022-10-24T14:24:48.387Z,49.36
2022-10-24T14:27:16.187Z,51.05
2022-10-24T14:29:56.856Z,52.33
2022-10-24T14:32:25.587Z,53.75
2022-10-24T14:34:55.508Z,54.55
2022-10-24T14:37:35.799Z,55.53
2022-10-24T14:40:04.819Z,56.93
2022-10-24T14:42:32.483Z,57.69
2022-10-24T14:45:00.163Z,57.96
2022-10-24T14:47:34.223Z,56.78
2022-10-24T14:50:01.686Z,58.15
2022-10-24T14:52:37.084Z,57.24
2022-10-24T14:55:08.183Z,58.84
2022-10-24T14:57:36.955Z,59.19
2022-10-24T15:00:19.728Z,61.38
2022-10-24T15:02:49.999Z,62.84
2022-10-24T15:05:19.865Z,64.23
2022-10-24T15:08:09.353Z,64.15
2022-10-24T15:10:36.116Z,66.13
2022-10-24T15:13:11.637Z,67.84
2022-10-24T15:15:49.603Z,66.21
2022-10-24T15:18:41.264Z,64.89
2022-10-24T15:21:15.125Z,64.42
2022-10-24T15:23:55.679Z,64.03
2022-10-24T15:26:42.855Z,63.50
2022-10-24T15:29:12.555Z,62.89
2022-10-24T15:31:48.238Z,63.55
2022-10-24T15:34:18.485Z,63.51
2022-10-24T15:36:47.110Z,64.22
2022-10-24T15:39:17.479Z,63.76
2022-10-24T15:41:44.425Z,65.27
2022-10-24T15:44:18.902Z,64.62
2022-10-24T15:46:46.938Z,64.24
2022-10-24T15:49:14.395Z,62.92
2022-10-24T15:51:45.991Z,61.49
2022-10-24T15:54:19.569Z,61.68
2022-10-24T15:56:47.199Z,63.23
2022-10-24T15:59:14.662Z,63.67
2022-10-24T16:02:03.165Z,61.83
2022-10-24T16:04:32.704Z,61.86
2022-10-24T16:07:00.077Z,62.49
2022-10-24T16:09:27.874Z,61.79
2022-10-24T16:11:55.295Z,60.75
2022-10-24T16:14:23.722Z,59.45
2022-10-24T16:16:50.659Z,59.33
2022-10-24T16:19:17.644Z,58.79
2022-10-24T16:21:44.815Z,59.14
2022-10-24T16:24:12.767Z,59.65
2022-10-24T16:26:40.692Z,59.19
2022-10-24T16:29:07.796Z,59.23
2022-10-24T16:31:35.203Z,59.47
2022-10-24T16:34:02.060Z,59.72
2022-10-24T16:36:29.410Z,59.42
2022-10-24T16:38:56.493Z,58.33
2022-10-24T16:41:26.025Z,58.17
2022-10-24T16:43:57.824Z,57.93
2022-10-24T16:46:26.727Z,57.90
2022-10-24T16:48:53.796Z,59.48
2022-10-24T16:51:32.256Z,58.70
2022-10-24T16:54:00.965Z,58.01
2022-10-24T16:56:29.005Z,58.57
2022-10-24T16:58:55.932Z,59.40
2022-10-24T17:01:23.324Z,59.45
2022-10-24T17:03:50.326Z,58.73
2022-10-24T17:06:17.234Z,58.67
2022-10-24T17:08:44.276Z,58.53
2022-10-24T17:11:39.529Z,59.64
2022-10-24T17:13:58.622Z,59.72
2022-10-24T17:16:25.662Z,60.10
2022-10-24T17:19:12.171Z,60.07
2022-10-24T17:21:39.561Z,61.65
2022-10-24T17:24:12.078Z,63.22
2022-10-24T17:26:39.907Z,63.90
2022-10-24T17:29:08.502Z,62.87
2022-10-24T17:31:36.093Z,63.70
2022-10-24T17:34:03.487Z,64.75
2022-10-24T17:36:34.951Z,65.26
2022-10-24T17:39:33.616Z,64.76
2022-10-24T17:42:00.565Z,66.17
2022-10-24T17:44:27.601Z,66.61
2022-10-24T17:46:58.251Z,67.45
2022-10-24T17:49:25.398Z,66.63
2022-10-24T17:51:52.388Z,66.12
2022-10-24T17:54:19.325Z,66.45
2022-10-24T17:56:46.341Z,65.92
2022-10-24T17:59:13.765Z,66.11
2022-10-24T18:01:41.217Z,64.43
2022-10-24T18:04:08.239Z,63.74
2022-10-24T18:06:37.251Z,63.19
2022-10-24T18:09:07.598Z,62.66
2022-10-24T18:11:34.501Z,62.82
2022-10-24T18:14:01.456Z,63.16
2022-10-24T18:16:30.599Z,62.35
2022-10-24T18:18:57.897Z,62.32
2022-10-24T18:21:25.711Z,61.37
2022-10-24T18:23:54.352Z,62.09
2022-10-24T18:26:24.278Z,62.50
2022-10-24T18:28:53.402Z,62.43
2022-10-24T18:31:26.206Z,61.79
2022-10-24T18:33:54.402Z,61.35
2022-10-24T18:36:27.785Z,61.72
2022-10-24T18:38:56.074Z,61.60
2022-10-24T18:41:37.804Z,59.99
2022-10-24T18:44:29.284Z,59.57
2022-10-24T18:47:01.317Z,59.23
2022-10-24T18:49:30.261Z,59.04
2022-10-24T18:52:12.315Z,58.95
2022-10-24T18:54:53.221Z,59.38
2022-10-24T18:57:28.740Z,58.98
2022-10-24T18:59:57.408Z,58.83
2022-10-24T19:02:37.640Z,60.23
2022-10-24T19:05:14.580Z,60.37
2022-10-24T19:07:42.567Z,59.09
2022-10-24T19:10:22.832Z,58.43
2022-10-24T19:12:50.906Z,58.34
2022-10-24T19:15:18.436Z,58.09
2022-10-24T19:17:46.714Z,57.85
2022-10-24T19:20:16.322Z,57.99
2022-10-24T19:22:43.520Z,57.69
2022-10-24T19:25:10.972Z,57.72
2022-10-24T19:27:37.966Z,57.58
2022-10-24T19:30:05.964Z,57.30
2022-10-24T19:32:33.238Z,56.99
2022-10-24T19:35:00.167Z,56.99
2022-10-24T19:37:27.297Z,56.55
2022-10-24T19:39:54.211Z,57.29
2022-10-24T19:42:21.298Z,58.50
2022-10-24T19:44:50.166Z,60.38
2022-10-24T19:47:17.310Z,63.82
2022-10-24T19:49:44.177Z,63.14
2022-10-24T19:52:11.202Z,65.25
2022-10-24T19:54:38.178Z,66.64
2022-10-24T19:57:05.045Z,65.44
2022-10-24T19:59:33.996Z,63.98
2022-10-24T20:02:01.056Z,64.83
2022-10-24T20:04:28.238Z,70.20
2022-10-24T20:06:55.147Z,72.06
2022-10-24T20:09:22.068Z,73.71
2022-10-24T20:11:49.022Z,72.34
2022-10-24T20:14:15.986Z,71.92
2022-10-24T20:16:42.898Z,66.63
2022-10-24T20:19:09.910Z,64.61
2022-10-24T20:21:37.710Z,62.49
2022-10-24T20:24:04.952Z,61.19
2022-10-24T20:26:32.105Z,60.95
2022-10-24T20:28:59.200Z,60.46
2022-10-24T20:31:33.799Z,59.83
2022-10-24T20:34:07.089Z,59.57
2022-10-24T20:36:36.241Z,59.96
2022-10-24T20:39:05.188Z,60.31
2022-10-24T20:41:32.222Z,60.42
2022-10-24T20:43:59.152Z,59.78
2022-10-24T20:46:26.022Z,59.56
2022-10-24T20:48:53.942Z,62.67
2022-10-24T20:51:21.389Z,64.75
2022-10-24T20:53:48.417Z,64.59
2022-10-24T20:56:18.194Z,65.77
2022-10-24T20:58:45.567Z,64.60
2022-10-24T21:01:17.172Z,63.50
2022-10-24T21:03:44.589Z,65.19
2022-10-24T21:06:15.904Z,66.38
2022-10-24T21:08:42.854Z,66.11
2022-10-24T21:11:13.358Z,70.11
2022-10-24T21:13:40.237Z,68.64
2022-10-24T21:16:07.578Z,69.07
2022-10-24T21:18:34.464Z,70.78
2022-10-24T21:21:12.511Z,68.08
2022-10-24T21:23:39.747Z,65.77
2022-10-24T21:26:12.989Z,66.67
2022-10-24T21:28:39.903Z,66.58
2022-10-24T21:31:09.646Z,68.17
2022-10-24T21:33:37.610Z,68.88
2022-10-24T21:36:06.580Z,68.66
2022-10-24T21:38:33.862Z,67.70
2022-10-24T21:41:08.737Z,66.58
2022-10-24T21:43:38.303Z,65.87
2022-10-24T21:46:13.859Z,65.41
2022-10-24T21:48:42.367Z,63.87
2022-10-24T21:51:10.521Z,65.65
2022-10-24T21:53:40.504Z,64.93
2022-10-24T21:56:10.863Z,65.17
2022-10-24T21:58:38.101Z,66.40
2022-10-24T22:01:13.401Z,65.98
2022-10-24T22:03:41.825Z,64.71
2022-10-24T22:06:11.612Z,65.36
2022-10-24T22:08:38.556Z,65.98
2022-10-24T22:11:08.464Z,67.02
2022-10-24T22:13:36.872Z,68.26
2022-10-24T22:16:04.654Z,66.50
2022-10-24T22:18:32.933Z,69.22
2022-10-24T22:21:01.622Z,71.93
2022-10-24T22:23:28.807Z,70.73
2022-10-24T22:25:55.913Z,71.84
2022-10-24T22:28:22.808Z,71.83
2022-10-24T22:30:50.061Z,70.88
2022-10-24T22:33:31.257Z,70.05
2022-10-24T22:36:03.254Z,70.09
2022-10-24T22:38:30.295Z,70.25
2022-10-24T22:40:57.508Z,67.40
2022-10-24T22:43:24.707Z,67.76
2022-10-24T22:46:03.649Z,68.45
2022-10-24T22:48:37.094Z,66.86
2022-10-24T22:51:04.261Z,69.33
2022-10-24T22:53:31.503Z,69.53
2022-10-24T22:56:11.459Z,68.88
2022-10-24T22:58:39.822Z,68.80
2022-10-24T23:01:15.727Z,67.47
2022-10-24T23:04:08.077Z,68.41
2022-10-24T23:06:51.544Z,66.87
2022-10-24T23:09:18.511Z,68.70
2022-10-24T23:11:45.724Z,69.56
2022-10-24T23:14:13.004Z,69.87
2022-10-24T23:16:51.658Z,70.07
2022-10-24T23:19:21.925Z,69.71
2022-10-24T23:21:56.739Z,68.90
2022-10-24T23:24:23.871Z,70.70
2022-10-24T23:27:19.057Z,73.74
2022-10-24T23:29:47.220Z,75.15
2022-10-24T23:32:19.575Z,77.01
2022-10-24T23:34:46.894Z,78.60
2022-10-24T23:37:34.755Z,76.80
2022-10-24T23:40:17.075Z,77.83
2022-10-24T23:42:51.497Z,78.05
2022-10-24T23:45:21.302Z,77.80
2022-10-24T23:47:53.320Z,78.33
2022-10-24T23:51:06.845Z,77.91
2022-10-24T23:53:33.661Z,77.30
2022-10-24T23:58:32.656Z,75.23
